Time;durP1;ratioP1;P1;durP2;ratioP2;P2;SDS_P1;SDS_P2;PMS_P1;PMS_P2;Temp;Humidity;BMP_temperature;BMP_pressure;BME280_temperature;BME280_humidity;BME280_pressure;Samples;Min_cycle;Max_cycle;Signal;HPM_P1;HPM_P2
2021/06/12 00:00:47;;;;;;;15.43;14.02;;;19.60;99.90;;;;;;5073339;28;20243;-63
2021/06/12 00:03:15;;;;;;;15.77;14.48;;;19.50;99.90;;;;;;5073394;28;20201;-63
2021/06/12 00:05:42;;;;;;;14.55;13.32;;;19.50;99.90;;;;;;5072977;28;20209;-63
2021/06/12 00:08:09;;;;;;;16.27;14.77;;;19.40;99.90;;;;;;5073336;28;20201;-62
2021/06/12 00:10:39;;;;;;;16.48;14.82;;;19.30;99.90;;;;;;5073164;28;20288;-62
2021/06/12 00:13:07;;;;;;;15.57;14.23;;;19.30;99.90;;;;;;5073276;28;20621;-64
2021/06/12 00:15:35;;;;;;;13.98;12.80;;;19.20;99.90;;;;;;5072823;28;20204;-63
2021/06/12 00:18:07;;;;;;;15.50;14.07;;;19.20;99.90;;;;;;5073542;28;20534;-63
2021/06/12 00:20:38;;;;;;;14.50;13.15;;;19.20;99.90;;;;;;5093252;28;20188;-63
2021/06/12 00:23:05;;;;;;;16.02;14.63;;;19.10;99.90;;;;;;5093278;28;20394;-62
2021/06/12 00:25:33;;;;;;;15.98;14.68;;;19.10;99.90;;;;;;5093122;28;20290;-63
2021/06/12 00:28:02;;;;;;;16.30;14.80;;;19.10;99.90;;;;;;5092394;28;20228;-62
2021/06/12 00:30:30;;;;;;;16.00;14.60;;;19.10;99.90;;;;;;5092963;28;20200;-62
2021/06/12 00:32:58;;;;;;;16.48;14.93;;;19.10;99.90;;;;;;5093004;28;20694;-63
2021/06/12 00:35:27;;;;;;;16.60;15.20;;;19.10;99.90;;;;;;5092928;28;20586;-62
2021/06/12 00:37:55;;;;;;;18.08;16.27;;;19.10;99.90;;;;;;5092672;28;20196;-62
2021/06/12 00:40:24;;;;;;;16.70;15.20;;;19.20;99.90;;;;;;5092831;28;20249;-64
2021/06/12 00:42:52;;;;;;;16.27;14.77;;;19.20;99.90;;;;;;5092762;28;20222;-63
2021/06/12 00:45:21;;;;;;;18.13;16.52;;;19.10;99.90;;;;;;5092629;28;20730;-63
2021/06/12 00:47:52;;;;;;;18.35;16.75;;;19.10;99.90;;;;;;5092777;28;20196;-63
2021/06/12 00:50:22;;;;;;;19.25;17.55;;;19.00;99.90;;;;;;5092561;28;20263;-62
2021/06/12 00:52:51;;;;;;;18.60;17.08;;;19.00;99.90;;;;;;5092686;28;20253;-63
2021/06/12 00:55:19;;;;;;;19.33;17.63;;;19.00;99.90;;;;;;5092488;28;20200;-62
2021/06/12 00:57:47;;;;;;;21.35;19.42;;;19.00;99.90;;;;;;5092397;28;20562;-62
2021/06/12 01:00:17;;;;;;;21.50;19.60;;;18.90;99.90;;;;;;5092577;28;20208;-61
2021/06/12 01:02:44;;;;;;;19.48;17.77;;;19.00;99.90;;;;;;5092207;28;20650;-62
2021/06/12 01:05:13;;;;;;;19.95;18.10;;;18.90;99.90;;;;;;5092378;28;20206;-63
2021/06/12 01:07:40;;;;;;;20.05;18.25;;;18.90;99.90;;;;;;5092197;28;20716;-62
2021/06/12 01:10:12;;;;;;;19.73;18.02;;;18.90;99.90;;;;;;5092002;28;20243;-62
2021/06/12 01:12:49;;;;;;;20.30;18.55;;;19.00;99.90;;;;;;5092452;28;20554;-63
2021/06/12 01:15:17;;;;;;;20.70;18.75;;;19.00;99.90;;;;;;5092433;28;20275;-62
2021/06/12 01:17:54;;;;;;;20.83;18.88;;;19.10;99.90;;;;;;5092114;28;20663;-63
2021/06/12 01:20:44;;;;;;;22.60;20.70;;;19.00;99.90;;;;;;5051586;28;20892;-63
2021/06/12 01:23:52;;;;;;;21.20;19.35;;;19.00;99.90;;;;;;5052047;28;20217;-62
2021/06/12 01:26:52;;;;;;;22.52;20.42;;;19.00;99.90;;;;;;5051693;28;20185;-62
2021/06/12 01:29:27;;;;;;;21.35;19.55;;;18.90;99.90;;;;;;5051253;28;20188;-63
2021/06/12 01:31:57;;;;;;;23.25;21.08;;;19.00;99.90;;;;;;5050958;28;20200;-63
2021/06/12 01:34:27;;;;;;;22.65;20.60;;;19.10;99.90;;;;;;5051228;28;20181;-63
2021/06/12 01:36:55;;;;;;;22.98;20.88;;;19.20;99.90;;;;;;5050849;28;20197;-62
2021/06/12 01:39:27;;;;;;;23.20;21.20;;;19.10;99.90;;;;;;5050174;28;20208;-63
2021/06/12 01:41:58;;;;;;;22.40;20.30;;;18.90;99.90;;;;;;5049727;28;20210;-62
2021/06/12 01:44:27;;;;;;;23.08;20.95;;;18.80;99.90;;;;;;5051060;28;20185;-61
2021/06/12 01:46:57;;;;;;;22.80;20.65;;;18.90;99.90;;;;;;5050942;28;20247;-62
2021/06/12 01:49:25;;;;;;;21.80;19.70;;;18.80;99.90;;;;;;5050915;28;20231;-63
2021/06/12 01:51:54;;;;;;;22.80;20.85;;;18.80;99.90;;;;;;5050789;28;20201;-63
2021/06/12 01:54:23;;;;;;;20.55;18.85;;;18.80;99.90;;;;;;5050689;28;20280;-63
2021/06/12 01:56:52;;;;;;;22.05;20.15;;;18.70;99.90;;;;;;5050927;28;20201;-62
2021/06/12 01:59:21;;;;;;;21.58;19.40;;;18.80;99.90;;;;;;5050465;28;20209;-63
2021/06/12 02:01:52;;;;;;;21.80;19.80;;;18.70;99.90;;;;;;5050637;28;20228;-62
2021/06/12 02:04:22;;;;;;;22.60;20.40;;;18.90;99.90;;;;;;5050782;28;20181;-62
2021/06/12 02:06:50;;;;;;;19.98;18.08;;;18.90;99.90;;;;;;5050291;28;20201;-63
2021/06/12 02:09:19;;;;;;;20.27;18.48;;;18.90;99.90;;;;;;5050541;28;20288;-63
2021/06/12 02:11:47;;;;;;;21.10;18.95;;;18.80;99.90;;;;;;5050697;28;20200;-62
2021/06/12 02:14:15;;;;;;;21.20;19.30;;;18.80;99.90;;;;;;5050685;28;20201;-63
2021/06/12 02:16:44;;;;;;;19.95;18.25;;;18.80;99.90;;;;;;5050551;28;20198;-63
2021/06/12 02:19:11;;;;;;;20.27;18.40;;;18.80;99.90;;;;;;5070822;28;20219;-62
2021/06/12 02:21:41;;;;;;;19.90;17.85;;;18.70;99.90;;;;;;5090536;28;20200;-62
2021/06/12 02:24:10;;;;;;;21.67;19.58;;;18.70;99.90;;;;;;5090601;28;20191;-62
2021/06/12 02:26:42;;;;;;;20.45;18.67;;;18.70;99.90;;;;;;5087312;28;83863;-62
2021/06/12 02:29:12;;;;;;;19.77;17.88;;;18.70;99.90;;;;;;5091438;28;20638;-63
2021/06/12 02:31:44;;;;;;;19.75;17.67;;;18.70;99.90;;;;;;5091570;28;20207;-62
2021/06/12 02:34:12;;;;;;;21.60;19.67;;;18.60;99.90;;;;;;5091591;28;20180;-63
2021/06/12 02:36:41;;;;;;;20.30;18.40;;;18.50;99.90;;;;;;5091421;28;20196;-63
2021/06/12 02:39:08;;;;;;;20.70;18.70;;;18.40;99.90;;;;;;5091239;28;20237;-62
2021/06/12 02:41:36;;;;;;;21.95;19.65;;;18.30;99.90;;;;;;5091385;28;20290;-62
2021/06/12 02:44:04;;;;;;;21.60;19.63;;;18.30;99.90;;;;;;5091507;28;20206;-61
2021/06/12 02:46:36;;;;;;;20.25;18.23;;;18.20;99.90;;;;;;5091359;28;20200;-62
2021/06/12 02:49:08;;;;;;;18.75;17.05;;;18.20;99.90;;;;;;5091813;28;20554;-62
2021/06/12 02:51:40;;;;;;;21.08;18.98;;;18.20;99.90;;;;;;5091574;28;20283;-63
2021/06/12 02:54:10;;;;;;;20.10;18.00;;;18.20;99.90;;;;;;5094826;28;20275;-62
2021/06/12 02:56:38;;;;;;;18.98;17.33;;;18.10;99.90;;;;;;5094890;28;20203;-61
2021/06/12 02:59:10;;;;;;;19.77;17.85;;;18.20;99.90;;;;;;5094871;28;20204;-64
2021/06/12 03:01:41;;;;;;;18.38;16.67;;;18.40;99.90;;;;;;5095011;28;20214;-62
2021/06/12 03:04:11;;;;;;;17.58;16.08;;;18.60;99.90;;;;;;5094900;28;20290;-62
2021/06/12 03:06:40;;;;;;;17.52;15.75;;;18.60;99.90;;;;;;5094481;28;20640;-63
2021/06/12 03:09:12;;;;;;;16.52;15.02;;;18.70;99.90;;;;;;5094539;28;20927;-62
2021/06/12 03:11:41;;;;;;;18.58;16.77;;;18.70;99.90;;;;;;5094369;28;20191;-63
2021/06/12 03:14:11;;;;;;;17.88;16.20;;;18.80;99.90;;;;;;5094344;28;20655;-62
2021/06/12 03:16:42;;;;;;;17.10;15.27;;;18.90;99.90;;;;;;5094063;28;20769;-63
2021/06/12 03:19:10;;;;;;;19.27;17.33;;;18.90;99.90;;;;;;5084970;28;20276;-62
2021/06/12 03:21:38;;;;;;;16.63;15.15;;;19.10;99.90;;;;;;5074432;28;20207;-63
2021/06/12 03:24:12;;;;;;;17.35;15.65;;;19.10;99.90;;;;;;5074035;28;20213;-62
2021/06/12 03:26:42;;;;;;;17.10;15.50;;;19.20;99.90;;;;;;5073874;28;20248;-63
2021/06/12 03:29:10;;;;;;;17.15;15.43;;;19.30;99.90;;;;;;5073760;28;20545;-62
2021/06/12 03:31:38;;;;;;;16.58;15.07;;;19.30;99.90;;;;;;5073998;28;20205;-63
2021/06/12 03:34:06;;;;;;;16.73;15.13;;;19.30;99.90;;;;;;5073819;28;20204;-63
2021/06/12 03:36:34;;;;;;;16.52;15.05;;;19.30;99.90;;;;;;5074047;28;20292;-62
2021/06/12 03:39:01;;;;;;;15.80;14.35;;;19.40;99.90;;;;;;5073583;28;20211;-62
2021/06/12 03:41:30;;;;;;;16.23;14.75;;;19.30;99.90;;;;;;5073837;28;20292;-62
2021/06/12 03:43:58;;;;;;;17.00;15.40;;;19.40;99.90;;;;;;5073413;28;20315;-62
2021/06/12 03:46:26;;;;;;;16.25;14.40;;;19.20;99.90;;;;;;5073757;28;20204;-63
2021/06/12 03:48:54;;;;;;;17.80;16.13;;;19.30;99.90;;;;;;5073428;28;20683;-63
2021/06/12 03:51:23;;;;;;;16.67;15.07;;;19.40;99.90;;;;;;5073483;28;20231;-62
2021/06/12 03:53:52;;;;;;;17.17;15.55;;;19.40;99.90;;;;;;5073525;28;20286;-62
2021/06/12 03:56:22;;;;;;;17.67;15.63;;;19.40;99.90;;;;;;5073439;28;20205;-61
2021/06/12 03:58:51;;;;;;;16.73;15.13;;;19.50;99.90;;;;;;5073157;28;20699;-61
2021/06/12 04:01:19;;;;;;;16.48;14.98;;;19.50;99.90;;;;;;5073363;28;20196;-63
2021/06/12 04:03:47;;;;;;;16.58;14.95;;;19.50;99.90;;;;;;5072050;28;20220;-62
2021/06/12 04:06:15;;;;;;;18.02;16.35;;;19.60;99.90;;;;;;5073296;28;20223;-62
2021/06/12 04:08:42;;;;;;;17.17;14.95;;;19.50;99.90;;;;;;5072977;28;20232;-64
2021/06/12 04:11:10;;;;;;;16.65;15.02;;;19.50;99.90;;;;;;5073376;28;20205;-65
2021/06/12 04:13:37;;;;;;;16.85;15.32;;;19.70;99.90;;;;;;5073338;28;20309;-63
2021/06/12 04:16:07;;;;;;;20.33;18.33;;;19.80;99.90;;;;;;5072921;28;20736;-63
2021/06/12 04:18:34;;;;;;;18.83;16.83;;;19.80;99.90;;;;;;5078410;28;20629;-62
2021/06/12 04:21:03;;;;;;;17.73;15.95;;;19.90;99.90;;;;;;5093222;28;20192;-63
2021/06/12 04:23:30;;;;;;;20.05;18.05;;;19.80;99.90;;;;;;5093194;28;20322;-63
2021/06/12 04:25:58;;;;;;;19.58;17.88;;;19.70;99.90;;;;;;5093114;28;20204;-62
2021/06/12 04:28:25;;;;;;;17.10;15.55;;;19.80;99.90;;;;;;5092685;28;20238;-62
2021/06/12 04:30:53;;;;;;;17.70;15.98;;;19.90;99.90;;;;;;5093155;28;20199;-63
2021/06/12 04:33:22;;;;;;;16.40;14.98;;;19.90;99.90;;;;;;5093035;28;20283;-62
2021/06/12 04:35:49;;;;;;;17.45;15.85;;;19.90;99.90;;;;;;5092891;28;20200;-62
2021/06/12 04:38:17;;;;;;;17.60;15.82;;;20.10;99.90;;;;;;5093034;28;20303;-62
2021/06/12 04:40:44;;;;;;;17.20;15.02;;;20.20;99.90;;;;;;5092435;28;20687;-62
2021/06/12 04:43:12;;;;;;;17.17;15.20;;;20.40;99.90;;;;;;5092536;28;20212;-62
2021/06/12 04:45:40;;;;;;;17.38;15.63;;;20.50;99.90;;;;;;5092845;28;20298;-63
2021/06/12 04:48:09;;;;;;;16.88;15.00;;;20.70;99.90;;;;;;5092662;28;20199;-62
2021/06/12 04:50:39;;;;;;;17.88;16.02;;;20.80;99.90;;;;;;5092534;28;20204;-63
2021/06/12 04:53:08;;;;;;;15.65;14.05;;;21.30;99.90;;;;;;5092722;28;20225;-62
2021/06/12 04:55:36;;;;;;;18.38;14.82;;;22.00;99.90;;;;;;5092106;28;20656;-62
2021/06/12 04:58:04;;;;;;;16.90;15.00;;;22.50;99.90;;;;;;5092677;28;20214;-62
2021/06/12 05:00:32;;;;;;;16.63;15.00;;;22.80;99.90;;;;;;5092467;28;20218;-62
2021/06/12 05:02:59;;;;;;;16.58;14.85;;;23.20;99.90;;;;;;5092150;28;20216;-62
2021/06/12 05:05:27;;;;;;;14.95;13.65;;;23.50;99.90;;;;;;5092444;28;20287;-63
2021/06/12 05:07:55;;;;;;;15.23;13.70;;;23.40;99.90;;;;;;5092053;28;20206;-62
2021/06/12 05:10:24;;;;;;;15.18;13.70;;;23.30;99.90;;;;;;5092240;28;20200;-62
2021/06/12 05:12:51;;;;;;;14.73;13.25;;;23.10;99.90;;;;;;5092279;28;20196;-63
2021/06/12 05:15:24;;;;;;;15.35;13.93;;;22.70;99.90;;;;;;5092100;28;20260;-62
2021/06/12 05:17:51;;;;;;;15.60;14.18;;;22.50;99.90;;;;;;5092405;28;20578;-62
2021/06/12 05:20:21;;;;;;;15.93;14.30;;;22.10;99.90;;;;;;5072347;28;20535;-62
2021/06/12 05:22:49;;;;;;;14.43;12.95;;;22.00;99.90;;;;;;5072013;28;20298;-62
2021/06/12 05:25:18;;;;;;;13.85;12.55;;;21.70;99.90;;;;;;5072000;28;20197;-63
2021/06/12 05:27:45;;;;;;;13.85;12.50;;;21.80;99.90;;;;;;5071556;28;20843;-62
2021/06/12 05:30:14;;;;;;;14.38;12.60;;;22.00;99.90;;;;;;5071942;28;20201;-62
2021/06/12 05:32:41;;;;;;;11.55;10.30;;;22.40;99.90;;;;;;5071884;28;20247;-63
2021/06/12 05:35:10;;;;;;;13.13;11.63;;;22.90;99.90;;;;;;5071773;28;20200;-63
2021/06/12 05:37:38;;;;;;;11.98;10.77;;;23.30;99.90;;;;;;5071808;28;20283;-62
2021/06/12 05:40:07;;;;;;;12.52;11.35;;;23.40;99.90;;;;;;5071961;28;20299;-62
2021/06/12 05:42:36;;;;;;;10.73;9.73;;;23.40;99.90;;;;;;5071695;28;20201;-62
2021/06/12 05:45:06;;;;;;;12.15;11.07;;;23.50;99.90;;;;;;5071544;28;20196;-62
2021/06/12 05:47:33;;;;;;;14.18;10.70;;;23.60;99.90;;;;;;5071772;28;20295;-62
2021/06/12 05:50:00;;;;;;;11.55;10.45;;;23.50;99.90;;;;;;5071683;28;20277;-63
2021/06/12 05:52:28;;;;;;;10.55;9.68;;;23.20;99.90;;;;;;5071264;28;20405;-63
2021/06/12 05:54:55;;;;;;;10.20;9.25;;;23.20;99.90;;;;;;5071379;28;20197;-62
2021/06/12 05:57:23;;;;;;;10.98;9.98;;;23.30;99.90;;;;;;5071658;28;20203;-63
2021/06/12 05:59:51;;;;;;;10.43;9.57;;;23.30;99.90;;;;;;5071704;28;20220;-63
2021/06/12 06:02:19;;;;;;;11.48;9.98;;;23.30;99.90;;;;;;5071515;28;20215;-63
2021/06/12 06:04:47;;;;;;;11.60;10.45;;;23.20;99.90;;;;;;5071592;28;20225;-63
2021/06/12 06:07:14;;;;;;;10.20;9.40;;;23.00;99.90;;;;;;5070959;28;20239;-62
2021/06/12 06:09:42;;;;;;;10.20;9.30;;;22.80;99.90;;;;;;5070849;28;20201;-63
2021/06/12 06:12:09;;;;;;;10.52;9.50;;;22.70;99.90;;;;;;5071227;28;20669;-62
2021/06/12 06:14:37;;;;;;;9.85;8.95;;;22.60;99.90;;;;;;5071302;28;20665;-63
2021/06/12 06:17:06;;;;;;;10.07;9.10;;;22.50;99.90;;;;;;5070660;28;20209;-62
2021/06/12 06:19:33;;;;;;;8.88;8.05;;;22.60;99.90;;;;;;5085231;28;20204;-63
2021/06/12 06:22:01;;;;;;;9.05;8.13;;;22.90;99.90;;;;;;5092192;28;20253;-62
2021/06/12 06:24:30;;;;;;;9.60;8.63;;;23.10;99.90;;;;;;5091817;28;20330;-62
2021/06/12 06:26:57;;;;;;;9.27;8.50;;;23.20;99.90;;;;;;5093314;28;20263;-63
2021/06/12 06:29:24;;;;;;;8.68;7.95;;;23.20;99.90;;;;;;5095848;28;20295;-62
2021/06/12 06:31:52;;;;;;;9.00;8.30;;;23.30;99.90;;;;;;5096098;28;20731;-62
2021/06/12 06:34:20;;;;;;;8.68;7.82;;;23.20;99.90;;;;;;5095962;28;20196;-63
2021/06/12 06:36:48;;;;;;;8.70;8.00;;;23.30;99.90;;;;;;5095575;28;20295;-63
2021/06/12 06:39:15;;;;;;;9.25;8.38;;;23.30;99.90;;;;;;5095830;28;20200;-63
2021/06/12 06:41:42;;;;;;;9.85;8.85;;;23.40;99.90;;;;;;5095618;28;20214;-63
2021/06/12 06:44:10;;;;;;;8.40;7.60;;;23.30;99.90;;;;;;5095771;28;20211;-62
2021/06/12 06:46:37;;;;;;;8.18;7.47;;;23.30;99.90;;;;;;5095467;28;20714;-61
2021/06/12 06:49:05;;;;;;;8.70;7.90;;;23.30;99.90;;;;;;5095785;28;20196;-63
2021/06/12 06:51:33;;;;;;;7.32;6.65;;;23.30;99.90;;;;;;5095431;28;20202;-63
2021/06/12 06:54:01;;;;;;;8.20;7.50;;;23.30;99.90;;;;;;5095304;28;20640;-63
2021/06/12 06:56:28;;;;;;;8.05;7.28;;;23.20;99.90;;;;;;5095461;28;20199;-62
2021/06/12 06:58:55;;;;;;;8.48;7.65;;;23.20;99.90;;;;;;5095249;28;20742;-62
2021/06/12 07:01:23;;;;;;;8.00;7.28;;;23.30;99.90;;;;;;5095265;28;20206;-62
2021/06/12 07:03:50;;;;;;;9.73;8.02;;;23.60;99.90;;;;;;5095373;28;20223;-62
2021/06/12 07:06:17;;;;;;;8.20;7.50;;;23.90;99.90;;;;;;5095121;28;20313;-63
2021/06/12 07:08:46;;;;;;;9.02;8.13;;;24.20;99.90;;;;;;5095207;28;20659;-63
2021/06/12 07:11:14;;;;;;;8.40;7.70;;;24.50;99.90;;;;;;5094770;28;20222;-63
2021/06/12 07:13:42;;;;;;;8.32;7.63;;;24.60;99.90;;;;;;5094635;28;20200;-63
2021/06/12 07:16:09;;;;;;;8.95;7.60;;;24.70;99.90;;;;;;5094481;28;20204;-62
2021/06/12 07:18:36;;;;;;;8.70;7.65;;;24.80;99.90;;;;;;5088676;28;20197;-62
2021/06/12 07:21:04;;;;;;;7.68;7.07;;;24.80;99.90;;;;;;5074269;28;20296;-62
2021/06/12 07:23:31;;;;;;;8.10;7.28;;;24.90;99.90;;;;;;5074213;28;20295;-63
2021/06/12 07:26:04;;;;;;;8.38;7.68;;;24.90;99.90;;;;;;5074496;28;20193;-63
2021/06/12 07:28:32;;;;;;;7.80;7.07;;;24.90;99.90;;;;;;5074526;28;20248;-64
2021/06/12 07:30:59;;;;;;;8.30;7.60;;;24.90;99.90;;;;;;5074629;28;20205;-63
2021/06/12 07:33:27;;;;;;;7.85;7.05;;;25.00;99.90;;;;;;5074344;28;20220;-63
2021/06/12 07:35:54;;;;;;;10.80;7.55;;;25.10;99.90;;;;;;5074495;28;20740;-63
2021/06/12 07:38:22;;;;;;;6.95;6.38;;;25.40;99.90;;;;;;5074256;28;20207;-62
2021/06/12 07:40:49;;;;;;;7.88;6.82;;;25.70;99.90;;;;;;5074664;28;20287;-62
2021/06/12 07:43:19;;;;;;;8.23;7.43;;;26.20;99.90;;;;;;5074499;28;20197;-62
2021/06/12 07:45:47;;;;;;;7.95;7.32;;;26.40;99.90;;;;;;5074539;28;20280;-62
2021/06/12 07:48:15;;;;;;;7.05;6.40;;;26.40;99.90;;;;;;5074245;28;20259;-63
2021/06/12 07:50:43;;;;;;;8.50;7.57;;;26.30;99.90;;;;;;5073992;28;20304;-63
2021/06/12 07:53:10;;;;;;;8.98;8.15;;;26.20;99.90;;;;;;5076354;28;20217;-63
2021/06/12 07:55:38;;;;;;;8.23;7.53;;;25.90;99.90;;;;;;5075972;28;20287;-63
2021/06/12 07:58:06;;;;;;;8.18;7.47;;;25.80;99.90;;;;;;5074351;28;20207;-62
2021/06/12 08:00:35;;;;;;;9.25;8.30;;;25.70;99.90;;;;;;5074020;28;20204;-62
2021/06/12 08:03:03;;;;;;;8.25;7.65;;;25.60;99.90;;;;;;5074090;28;20281;-62
2021/06/12 08:05:30;;;;;;;8.98;8.18;;;25.40;99.90;;;;;;5073687;28;20224;-62
2021/06/12 08:07:58;;;;;;;9.70;8.70;;;25.20;99.90;;;;;;5073813;28;20205;-62
2021/06/12 08:10:26;;;;;;;9.32;8.43;;;25.00;99.90;;;;;;5073689;28;20218;-62
2021/06/12 08:12:53;;;;;;;8.27;7.50;;;24.90;99.90;;;;;;5074037;28;20264;-62
2021/06/12 08:15:22;;;;;;;8.90;8.15;;;24.90;99.90;;;;;;5073475;28;20207;-63
2021/06/12 08:17:51;;;;;;;7.22;6.50;;;25.00;99.90;;;;;;5073692;28;20300;-63
2021/06/12 08:20:19;;;;;;;8.27;7.53;;;25.40;99.90;;;;;;5093261;28;20290;-63
2021/06/12 08:22:46;;;;;;;8.38;7.70;;;26.00;99.90;;;;;;5080995;28;20612;-64
2021/06/12 08:25:13;;;;;;;8.88;8.00;;;26.20;99.90;;;;;;5073182;28;20225;-65
2021/06/12 08:27:41;;;;;;;7.47;6.88;;;26.20;99.90;;;;;;5079486;28;20228;-61
2021/06/12 08:30:09;;;;;;;7.50;6.80;;;26.20;99.90;;;;;;5093830;28;20222;-61
2021/06/12 08:32:40;;;;;;;7.93;6.47;;;26.30;99.90;;;;;;5084828;28;20292;-61
2021/06/12 08:35:09;;;;;;;7.63;6.80;;;26.40;99.90;;;;;;5076260;28;20192;-62
2021/06/12 08:37:37;;;;;;;8.60;7.80;;;26.60;99.90;;;;;;5090938;28;20204;-62
2021/06/12 08:40:05;;;;;;;7.15;6.45;;;26.40;99.90;;;;;;5075562;28;20302;-62
2021/06/12 08:42:33;;;;;;;7.55;6.65;;;26.40;99.90;;;;;;5057027;28;20207;-62
2021/06/12 08:45:03;;;;;;;6.50;6.00;;;26.40;99.90;;;;;;5073223;28;20218;-64
2021/06/12 08:47:35;;;;;;;8.27;6.20;;;26.20;99.90;;;;;;5085656;28;20720;-63
2021/06/12 08:50:04;;;;;;;6.85;6.15;;;25.80;99.90;;;;;;5076287;28;20203;-63
2021/06/12 08:52:34;;;;;;;8.32;7.53;;;25.60;99.90;;;;;;5074040;28;20258;-63
2021/06/12 08:55:02;;;;;;;7.18;6.45;;;25.40;99.90;;;;;;5093249;28;20192;-64
2021/06/12 08:57:30;;;;;;;7.95;6.75;;;25.40;99.90;;;;;;5092999;28;20241;-61
2021/06/12 08:59:57;;;;;;;7.60;6.85;;;25.40;99.90;;;;;;5092994;28;20196;-64
2021/06/12 09:02:25;;;;;;;6.88;6.13;;;25.40;99.90;;;;;;5080302;28;20291;-67
2021/06/12 09:04:53;;;;;;;7.32;6.63;;;25.40;99.90;;;;;;5072560;28;20213;-66
2021/06/12 09:07:24;;;;;;;8.23;7.43;;;25.50;99.90;;;;;;5072337;28;20215;-66
2021/06/12 09:09:53;;;;;;;7.32;6.70;;;25.30;99.90;;;;;;5072717;28;20187;-62
2021/06/12 09:12:21;;;;;;;7.68;6.72;;;25.10;99.90;;;;;;5072806;28;20201;-63
2021/06/12 09:15:09;;;;;;;7.60;6.90;;;25.10;99.90;;;;;;5072145;28;20205;-62
2021/06/12 09:17:45;;;;;;;7.22;6.53;;;25.20;99.90;;;;;;5072478;28;20291;-62
2021/06/12 09:20:17;;;;;;;6.07;5.53;;;25.20;99.90;;;;;;5091122;28;20232;-62
2021/06/12 09:22:44;;;;;;;6.78;6.13;;;25.30;99.90;;;;;;5092550;28;20195;-62
2021/06/12 09:25:37;;;;;;;7.57;6.47;;;25.60;99.90;;;;;;5092365;28;20342;-62
2021/06/12 09:28:04;;;;;;;7.05;6.45;;;26.00;99.90;;;;;;5092135;28;20232;-62
2021/06/12 09:30:32;;;;;;;6.78;6.18;;;26.20;99.90;;;;;;5092594;28;20200;-62
2021/06/12 09:33:00;;;;;;;6.68;6.00;;;26.00;99.90;;;;;;5092504;28;20204;-62
2021/06/12 09:35:32;;;;;;;5.78;5.18;;;26.00;99.90;;;;;;5092510;28;20196;-62
2021/06/12 09:38:00;;;;;;;5.50;4.78;;;26.00;99.90;;;;;;5092446;28;20204;-62
2021/06/12 09:40:32;;;;;;;4.90;4.50;;;25.90;99.90;;;;;;5092143;28;20200;-63
2021/06/12 09:43:01;;;;;;;5.65;4.53;;;25.80;99.90;;;;;;5091199;28;20195;-62
2021/06/12 09:45:30;;;;;;;5.72;4.40;;;25.50;99.90;;;;;;5072181;28;20220;-62
2021/06/12 09:48:09;;;;;;;4.90;4.43;;;25.20;99.90;;;;;;5072331;28;20204;-62
2021/06/12 09:50:36;;;;;;;4.28;3.97;;;25.10;99.90;;;;;;5072188;28;20200;-62
2021/06/12 09:53:12;;;;;;;4.85;4.45;;;24.90;99.90;;;;;;5079951;28;20286;-62
2021/06/12 09:55:41;;;;;;;4.22;3.92;;;25.00;99.90;;;;;;5092644;28;20195;-63
2021/06/12 09:58:09;;;;;;;5.47;4.68;;;25.30;99.90;;;;;;5090658;28;20206;-62
2021/06/12 10:00:38;;;;;;;4.22;3.88;;;25.70;99.90;;;;;;5070659;28;20207;-62
2021/06/12 10:03:17;;;;;;;4.32;3.92;;;26.20;99.90;;;;;;5075088;28;20203;-62
2021/06/12 10:05:45;;;;;;;5.63;4.55;;;26.50;99.90;;;;;;5075859;28;20346;-62
2021/06/12 10:08:14;;;;;;;6.70;6.07;;;26.80;99.90;;;;;;5075409;28;20295;-61
2021/06/12 10:10:48;;;;;;;6.68;5.25;;;27.00;99.90;;;;;;5075274;28;20204;-62
2021/06/12 10:13:17;;;;;;;4.05;3.75;;;27.20;99.90;;;;;;5075109;28;20201;-63
2021/06/12 10:15:47;;;;;;;5.13;4.38;;;27.20;99.90;;;;;;5075488;28;20291;-65
2021/06/12 10:18:19;;;;;;;5.07;4.10;;;27.00;99.90;;;;;;5076044;28;20355;-63
2021/06/12 10:20:47;;;;;;;5.95;4.07;;;26.90;99.90;;;;;;5076077;28;20279;-64
2021/06/12 10:23:15;;;;;;;4.40;4.10;;;27.00;99.90;;;;;;5075435;28;20211;-63
2021/06/12 10:25:44;;;;;;;5.13;4.10;;;26.80;99.90;;;;;;5075597;28;20251;-63
2021/06/12 10:28:12;;;;;;;3.92;3.60;;;26.90;99.90;;;;;;5075012;28;20236;-63
2021/06/12 10:30:42;;;;;;;3.90;3.50;;;26.70;99.90;;;;;;5075558;28;20287;-62
2021/06/12 10:33:10;;;;;;;3.58;3.28;;;26.50;99.90;;;;;;5075400;28;20202;-62
2021/06/12 10:35:37;;;;;;;4.40;3.33;;;26.70;99.90;;;;;;5075494;28;20203;-63
2021/06/12 10:38:13;;;;;;;3.95;3.25;;;26.80;99.90;;;;;;5075048;28;20204;-63
2021/06/12 10:40:45;;;;;;;3.83;3.42;;;27.10;99.90;;;;;;5075472;28;20189;-62
2021/06/12 10:43:15;;;;;;;3.03;2.72;;;27.30;99.90;;;;;;5074875;28;20196;-63
2021/06/12 10:45:44;;;;;;;6.05;2.83;;;27.20;99.90;;;;;;5075056;28;20303;-64
2021/06/12 10:48:43;;;;;;;3.63;2.50;;;27.40;99.90;;;;;;5075408;28;20200;-61
2021/06/12 10:51:11;;;;;;;4.97;2.60;;;27.50;99.90;;;;;;5075029;28;20227;-61
2021/06/12 10:53:41;;;;;;;3.03;2.30;;;27.50;99.90;;;;;;5087585;28;20283;-62
2021/06/12 10:56:11;;;;;;;2.83;2.63;;;27.30;99.90;;;;;;5095354;28;20740;-60
2021/06/12 10:58:43;;;;;;;2.60;2.40;;;27.20;99.90;;;;;;5095294;28;20564;-59
2021/06/12 11:01:19;;;;;;;2.85;2.65;;;26.80;99.90;;;;;;5095353;28;20210;-59
2021/06/12 11:03:57;;;;;;;2.30;2.10;;;26.20;99.90;;;;;;5095071;28;20613;-61
2021/06/12 11:06:41;;;;;;;2.97;2.40;;;25.80;99.90;;;;;;5095107;28;20200;-61
2021/06/12 11:09:38;;;;;;;3.35;2.33;;;25.40;99.90;;;;;;5094828;28;20275;-62
2021/06/12 11:12:35;;;;;;;3.22;2.85;;;24.90;99.90;;;;;;5094380;28;20193;-61
2021/06/12 11:15:12;;;;;;;5.00;2.85;;;24.60;99.90;;;;;;5076598;28;20667;-61
2021/06/12 11:17:41;;;;;;;3.45;3.15;;;24.30;99.90;;;;;;5074874;28;20259;-62
2021/06/12 11:20:27;;;;;;;3.30;3.00;;;24.00;99.90;;;;;;5074826;28;20204;-61
2021/06/12 11:23:01;;;;;;;3.72;3.35;;;23.80;99.90;;;;;;5074186;28;20191;-62
2021/06/12 11:25:44;;;;;;;4.13;3.30;;;23.70;99.90;;;;;;5074214;28;20680;-61
2021/06/12 11:28:31;;;;;;;3.65;3.22;;;23.60;99.90;;;;;;5073978;28;20236;-63
2021/06/12 11:31:37;;;;;;;4.13;3.42;;;23.40;99.90;;;;;;5074547;28;20286;-62
2021/06/12 11:34:23;;;;;;;4.55;3.55;;;23.30;99.90;;;;;;5074373;28;20192;-63
2021/06/12 11:37:07;;;;;;;3.70;3.40;;;23.20;99.90;;;;;;5074528;28;20195;-63
2021/06/12 11:39:45;;;;;;;3.85;3.33;;;23.10;99.90;;;;;;5073543;28;20197;-63
2021/06/12 11:42:21;;;;;;;4.30;3.90;;;22.90;99.90;;;;;;5074425;28;20307;-63
2021/06/12 11:45:20;;;;;;;4.93;4.05;;;22.70;99.90;;;;;;5073906;28;20228;-62
2021/06/12 11:47:48;;;;;;;4.53;4.13;;;22.70;99.90;;;;;;5073883;28;20189;-63
2021/06/12 11:50:16;;;;;;;5.57;3.97;;;22.70;99.90;;;;;;5073884;28;20205;-63
2021/06/12 11:52:50;;;;;;;4.82;4.43;;;22.60;99.90;;;;;;5079725;28;20669;-63
2021/06/12 11:55:19;;;;;;;6.32;4.50;;;22.60;99.90;;;;;;5093900;28;20648;-63
2021/06/12 11:57:48;;;;;;;5.43;4.43;;;22.60;99.90;;;;;;5094271;28;20239;-63
2021/06/12 12:00:28;;;;;;;4.80;4.40;;;22.60;99.90;;;;;;5094010;28;20207;-64
2021/06/12 12:03:04;;;;;;;4.97;4.57;;;22.50;99.90;;;;;;5093887;28;20184;-62
2021/06/12 12:05:34;;;;;;;6.10;5.45;;;22.60;99.90;;;;;;5093590;28;20740;-63
2021/06/12 12:08:02;;;;;;;5.05;4.60;;;22.80;99.90;;;;;;5093394;28;20215;-62
2021/06/12 12:10:30;;;;;;;5.28;4.55;;;23.10;99.90;;;;;;5093842;28;20211;-63
2021/06/12 12:12:57;;;;;;;4.43;4.13;;;23.40;99.90;;;;;;5093371;28;20226;-63
2021/06/12 12:15:39;;;;;;;5.10;4.57;;;23.80;99.90;;;;;;5073482;28;20208;-61
2021/06/12 12:18:08;;;;;;;5.00;4.50;;;24.10;99.90;;;;;;5073509;28;20207;-62
2021/06/12 12:20:39;;;;;;;5.18;4.78;;;24.30;99.90;;;;;;5073419;28;20201;-63
2021/06/12 12:23:28;;;;;;;4.75;4.35;;;24.60;99.90;;;;;;5072934;28;20209;-62
2021/06/12 12:26:07;;;;;;;5.15;4.32;;;24.90;99.90;;;;;;5065733;28;20745;-63
2021/06/12 12:28:53;;;;;;;5.00;4.50;;;24.90;99.90;;;;;;5072751;28;20225;-63
2021/06/12 12:31:22;;;;;;;5.90;5.00;;;24.70;99.90;;;;;;5073270;28;20187;-62
2021/06/12 12:33:51;;;;;;;5.22;4.80;;;24.50;99.90;;;;;;5073182;28;20205;-62
2021/06/12 12:36:18;;;;;;;5.07;4.68;;;24.20;99.90;;;;;;5073011;28;20200;-63
2021/06/12 12:38:55;;;;;;;5.90;5.28;;;24.00;99.90;;;;;;5072946;28;20287;-62
2021/06/12 12:41:23;;;;;;;6.82;5.10;;;23.90;99.90;;;;;;5073073;28;20279;-62
2021/06/12 12:44:05;;;;;;;5.10;4.60;;;23.70;99.90;;;;;;5072791;28;20204;-63
2021/06/12 12:46:36;;;;;;;4.88;4.47;;;23.50;99.90;;;;;;5072439;28;20219;-64
2021/06/12 12:49:04;;;;;;;5.57;5.07;;;23.40;99.90;;;;;;5072668;28;20215;-63
2021/06/12 12:51:32;;;;;;;5.82;5.00;;;23.20;99.90;;;;;;5072779;28;20204;-63
2021/06/12 12:54:14;;;;;;;5.70;5.20;;;23.00;99.90;;;;;;5088248;28;20204;-62